^^
Saratoga-Weather Station Historical Data
Daily Summary for May 5, 2020 Units:  Both    English   Metric
Daily Weekly Monthly Yearly Custom
  High: Low: Average:
Temperature: 70.2 °F /  21.2 °C 37.6 °F /  3.1 °C 53.2 °F /  11.8 °C
Dew Point: 41.5 °F /  5.3 °C 33.6 °F /  0.9 °C 37.2 °F /  2.9 °C
Humidity: 87% 30% 58%
Wind Speed: 11mph /  17.7km/h - 1.4mph /  2.2km/h
Wind Gust: 13mph /  20.9km/h - -
Wind- - ESE
Pressure: 30.2 in /  1022.0 hPa 30 in /  1016.9 hPa -
Precipitation: 0 in /  0.0 mm    
Historical Graphs
 
 
Tabular Data for May 5, 2020
Time Temperature Dew Point Pressure Wind Wind Speed Wind Gust Humidity Rainfall Rate (Hourly) solar
00:00 43.9 °F /  6.6 °C 35.4 °F /  1.9 °C 30.2in /  1022.0hPa Calm     72% 0in /  0.0mm 0 W/m2
00:05 43.9 °F /  6.6 °C 35.4 °F /  1.9 °C 30.2in /  1021.7hPa Calm     72% 0in /  0.0mm 0 W/m2
00:10 43.7 °F /  6.5 °C 34.9 °F /  1.6 °C 30.2in /  1021.7hPa Calm   1mph /  1.6km/h 71% 0in /  0.0mm 0 W/m2
00:15 43.7 °F /  6.5 °C 35.2 °F /  1.8 °C 30.2in /  1021.7hPa Calm   1mph /  1.6km/h 72% 0in /  0.0mm 0 W/m2
00:20 43.7 °F /  6.5 °C 35.2 °F /  1.8 °C 30.2in /  1021.7hPa Calm     72% 0in /  0.0mm 0 W/m2
00:25 43.5 °F /  6.4 °C 35.1 °F /  1.7 °C 30.2in /  1021.7hPa Calm     72% 0in /  0.0mm 0 W/m2
00:30 43.5 °F /  6.4 °C 35.1 °F /  1.7 °C 30.2in /  1021.7hPa Calm   2mph /  3.2km/h 72% 0in /  0.0mm 0 W/m2
00:35 43.3 °F /  6.3 °C 34.9 °F /  1.6 °C 30.2in /  1021.7hPa Calm     72% 0in /  0.0mm 0 W/m2
00:40 43.3 °F /  6.3 °C 35.2 °F /  1.8 °C 30.2in /  1021.7hPa Calm   2mph /  3.2km/h 73% 0in /  0.0mm 0 W/m2
00:45 43.3 °F /  6.3 °C 35.2 °F /  1.8 °C 30.2in /  1021.7hPa Calm   1mph /  1.6km/h 73% 0in /  0.0mm 0 W/m2
00:50 43.2 °F /  6.2 °C 35.1 °F /  1.7 °C 30.2in /  1021.7hPa Calm   1mph /  1.6km/h 73% 0in /  0.0mm 0 W/m2
00:55 43.2 °F /  6.2 °C 35.1 °F /  1.7 °C 30.2in /  1021.7hPa Calm   1mph /  1.6km/h 73% 0in /  0.0mm 0 W/m2
01:00 43.2 °F /  6.2 °C 35.1 °F /  1.7 °C 30.2in /  1021.7hPa Calm   2mph /  3.2km/h 73% 0in /  0.0mm 0 W/m2
01:05 43 °F /  6.1 °C 34.9 °F /  1.6 °C 30.2in /  1021.7hPa Calm     73% 0in /  0.0mm 0 W/m2
01:10 42.6 °F /  5.9 °C 34.9 °F /  1.6 °C 30.2in /  1021.7hPa Calm   2mph /  3.2km/h 74% 0in /  0.0mm 0 W/m2
01:15 42.6 °F /  5.9 °C 34.9 °F /  1.6 °C 30.2in /  1021.7hPa SSE 0.9mph /  1.4km/h 1mph /  1.6km/h 74% 0in /  0.0mm 0 W/m2
01:20 42.6 °F /  5.9 °C 34.9 °F /  1.6 °C 30.2in /  1021.7hPa Calm   1mph /  1.6km/h 74% 0in /  0.0mm 0 W/m2
01:26 42.6 °F /  5.9 °C 34.9 °F /  1.6 °C 30.2in /  1021.7hPa Calm     74% 0in /  0.0mm 0 W/m2
01:31 42.8 °F /  6 °C 34.7 °F /  1.5 °C 30.2in /  1021.7hPa Calm   1mph /  1.6km/h 73% 0in /  0.0mm 0 W/m2
01:36 43 °F /  6.1 °C 34.9 °F /  1.6 °C 30.2in /  1021.7hPa Calm   1mph /  1.6km/h 73% 0in /  0.0mm 0 W/m2
01:41 43 °F /  6.1 °C 34.9 °F /  1.6 °C 30.2in /  1021.3hPa Calm     73% 0in /  0.0mm 0 W/m2
01:46 43 °F /  6.1 °C 34.9 °F /  1.6 °C 30.2in /  1021.7hPa Calm     73% 0in /  0.0mm 0 W/m2
01:51 42.8 °F /  6 °C 34.7 °F /  1.5 °C 30.2in /  1021.7hPa Calm     73% 0in /  0.0mm 0 W/m2
01:56 42.4 °F /  5.8 °C 34.7 °F /  1.5 °C 30.2in /  1021.3hPa Calm   1mph /  1.6km/h 74% 0in /  0.0mm 0 W/m2
02:01 42.3 °F /  5.7 °C 34.5 °F /  1.4 °C 30.2in /  1021.3hPa SSE 0.9mph /  1.4km/h 2mph /  3.2km/h 74% 0in /  0.0mm 0 W/m2
02:06 42.3 °F /  5.7 °C 34.9 °F /  1.6 °C 30.2in /  1021.3hPa Calm   1mph /  1.6km/h 75% 0in /  0.0mm 0 W/m2
02:11 42.1 °F /  5.6 °C 34.7 °F /  1.5 °C 30.2in /  1021.3hPa Calm   2mph /  3.2km/h 75% 0in /  0.0mm 0 W/m2
02:16 41.9 °F /  5.5 °C 34.5 °F /  1.4 °C 30.2in /  1021.3hPa Calm     75% 0in /  0.0mm 0 W/m2
02:21 41.7 °F /  5.4 °C 34.3 °F /  1.3 °C 30.2in /  1021.3hPa Calm     75% 0in /  0.0mm 0 W/m2
02:26 41.5 °F /  5.3 °C 34.5 °F /  1.4 °C 30.2in /  1021.3hPa Calm     76% 0in /  0.0mm 0 W/m2
02:31 41.4 °F /  5.2 °C 34.3 °F /  1.3 °C 30.2in /  1021.3hPa Calm   1mph /  1.6km/h 76% 0in /  0.0mm 0 W/m2
02:36 41.4 °F /  5.2 °C 34.3 °F /  1.3 °C 30.2in /  1021.3hPa Calm     76% 0in /  0.0mm 0 W/m2
02:41 41.4 °F /  5.2 °C 34.3 °F /  1.3 °C 30.2in /  1021.3hPa Calm     76% 0in /  0.0mm 0 W/m2
02:46 41.4 °F /  5.2 °C 34.7 °F /  1.5 °C 30.2in /  1021.3hPa Calm     77% 0in /  0.0mm 0 W/m2
02:51 41.4 °F /  5.2 °C 34.7 °F /  1.5 °C 30.2in /  1021.3hPa Calm     77% 0in /  0.0mm 0 W/m2
02:56 41.4 °F /  5.2 °C 34.7 °F /  1.5 °C 30.2in /  1021.3hPa Calm     77% 0in /  0.0mm 0 W/m2
03:01 41.4 °F /  5.2 °C 34.7 °F /  1.5 °C 30.2in /  1021.3hPa Calm     77% 0in /  0.0mm 0 W/m2
03:06 41.2 °F /  5.1 °C 34.5 °F /  1.4 °C 30.2in /  1021.3hPa Calm     77% 0in /  0.0mm 0 W/m2
03:11 41 °F /  5 °C 34.3 °F /  1.3 °C 30.2in /  1021.3hPa Calm     77% 0in /  0.0mm 0 W/m2
03:16 40.8 °F /  4.9 °C 34.5 °F /  1.4 °C 30.2in /  1021.3hPa Calm     78% 0in /  0.0mm 0 W/m2
03:21 40.6 °F /  4.8 °C 34.3 °F /  1.3 °C 30.2in /  1021.3hPa Calm     78% 0in /  0.0mm 0 W/m2
03:26 40.5 °F /  4.7 °C 34.5 °F /  1.4 °C 30.2in /  1021.3hPa Calm     79% 0in /  0.0mm 0 W/m2
03:31 40.3 °F /  4.6 °C 34.3 °F /  1.3 °C 30.2in /  1021.3hPa Calm   1mph /  1.6km/h 79% 0in /  0.0mm 0 W/m2
03:36 40.3 °F /  4.6 °C 34.5 °F /  1.4 °C 30.2in /  1021.3hPa Calm   1mph /  1.6km/h 80% 0in /  0.0mm 0 W/m2
03:42 40.3 °F /  4.6 °C 34.5 °F /  1.4 °C 30.2in /  1021.0hPa Calm     80% 0in /  0.0mm 0 W/m2
03:47 40.1 °F /  4.5 °C 34.5 °F /  1.4 °C 30.2in /  1021.0hPa Calm     80% 0in /  0.0mm 0 W/m2
03:52 39.9 °F /  4.4 °C 34.3 °F /  1.3 °C 30.2in /  1021.0hPa Calm     80% 0in /  0.0mm 0 W/m2
03:57 39.7 °F /  4.3 °C 34.2 °F /  1.2 °C 30.2in /  1021.0hPa Calm     80% 0in /  0.0mm 0 W/m2
04:02 39.6 °F /  4.2 °C 34 °F /  1.1 °C 30.2in /  1021.0hPa Calm     80% 0in /  0.0mm 0 W/m2
04:07 39.6 °F /  4.2 °C 34.2 °F /  1.2 °C 30.2in /  1021.0hPa Calm     81% 0in /  0.0mm 0 W/m2
04:12 39.4 °F /  4.1 °C 34 °F /  1.1 °C 30.2in /  1021.3hPa Calm     81% 0in /  0.0mm 0 W/m2
04:17 39.2 °F /  4 °C 34.2 °F /  1.2 °C 30.2in /  1021.0hPa Calm     82% 0in /  0.0mm 0 W/m2
04:22 39.2 °F /  4 °C 34.2 °F /  1.2 °C 30.2in /  1021.0hPa Calm     82% 0in /  0.0mm 0 W/m2
04:27 39 °F /  3.9 °C 34 °F /  1.1 °C 30.2in /  1021.0hPa Calm     82% 0in /  0.0mm 0 W/m2
04:32 38.8 °F /  3.8 °C 33.8 °F /  1 °C 30.2in /  1021.0hPa Calm     82% 0in /  0.0mm 0 W/m2
04:37 38.8 °F /  3.8 °C 33.8 °F /  1 °C 30.2in /  1021.0hPa Calm     82% 0in /  0.0mm 0 W/m2
04:42 38.7 °F /  3.7 °C 34 °F /  1.1 °C 30.2in /  1021.3hPa Calm     83% 0in /  0.0mm 0 W/m2
04:47 38.7 °F /  3.7 °C 34 °F /  1.1 °C 30.2in /  1021.0hPa Calm     83% 0in /  0.0mm 0 W/m2
04:52 38.7 °F /  3.7 °C 34 °F /  1.1 °C 30.2in /  1021.3hPa Calm     83% 0in /  0.0mm 0 W/m2
04:57 38.7 °F /  3.7 °C 34.2 °F /  1.2 °C 30.2in /  1021.3hPa Calm     84% 0in /  0.0mm 0 W/m2
05:02 38.7 °F /  3.7 °C 34 °F /  1.1 °C 30.2in /  1021.3hPa Calm     83% 0in /  0.0mm 0 W/m2
05:07 38.7 °F /  3.7 °C 34.2 °F /  1.2 °C 30.2in /  1021.3hPa Calm     84% 0in /  0.0mm 0 W/m2
05:12 38.7 °F /  3.7 °C 34.2 °F /  1.2 °C 30.2in /  1021.3hPa Calm     84% 0in /  0.0mm 0 W/m2
05:17 38.7 °F /  3.7 °C 34.2 °F /  1.2 °C 30.2in /  1021.0hPa Calm     84% 0in /  0.0mm 0 W/m2
05:22 38.5 °F /  3.6 °C 34.2 °F /  1.2 °C 30.2in /  1021.0hPa Calm   1mph /  1.6km/h 84% 0in /  0.0mm 0 W/m2
05:27 38.5 °F /  3.6 °C 34.2 °F /  1.2 °C 30.2in /  1021.0hPa SSE 0.9mph /  1.4km/h 2mph /  3.2km/h 84% 0in /  0.0mm 0 W/m2
05:32 38.5 °F /  3.6 °C 34.2 °F /  1.2 °C 30.2in /  1021.0hPa SSE 0.9mph /  1.4km/h 2mph /  3.2km/h 84% 0in /  0.0mm 0 W/m2
05:37 38.5 °F /  3.6 °C 34.3 °F /  1.3 °C 30.2in /  1021.0hPa Calm   1mph /  1.6km/h 85% 0in /  0.0mm 0 W/m2
05:42 38.7 °F /  3.7 °C 34.5 °F /  1.4 °C 30.2in /  1021.0hPa SSE 0.9mph /  1.4km/h 1mph /  1.6km/h 85% 0in /  0.0mm 0 W/m2
05:47 38.8 °F /  3.8 °C 34.3 °F /  1.3 °C 30.2in /  1021.0hPa Calm   1mph /  1.6km/h 84% 0in /  0.0mm 0 W/m2
05:52 38.8 °F /  3.8 °C 34.3 °F /  1.3 °C 30.2in /  1021.0hPa SSE 2mph /  3.2km/h 2mph /  3.2km/h 84% 0in /  0.0mm 0 W/m2
05:57 38.8 °F /  3.8 °C 34.3 °F /  1.3 °C 30.2in /  1021.3hPa SSE 0.9mph /  1.4km/h 1mph /  1.6km/h 84% 0in /  0.0mm 0 W/m2
06:02 38.7 °F /  3.7 °C 34.2 °F /  1.2 °C 30.2in /  1021.3hPa Calm   1mph /  1.6km/h 84% 0in /  0.0mm 0 W/m2
06:07 38.7 °F /  3.7 °C 34.2 °F /  1.2 °C 30.2in /  1021.3hPa Calm   2mph /  3.2km/h 84% 0in /  0.0mm 0 W/m2
06:12 38.5 °F /  3.6 °C 34.2 °F /  1.2 °C 30.2in /  1021.0hPa SSE 0.9mph /  1.4km/h 2mph /  3.2km/h 84% 0in /  0.0mm 0 W/m2
06:17 38.5 °F /  3.6 °C 34.2 °F /  1.2 °C 30.2in /  1021.0hPa SSE 0.9mph /  1.4km/h 1mph /  1.6km/h 84% 0in /  0.0mm 0 W/m2
06:22 38.5 °F /  3.6 °C 34.3 °F /  1.3 °C 30.2in /  1021.0hPa SSE 0.9mph /  1.4km/h 2mph /  3.2km/h 85% 0in /  0.0mm 0 W/m2
06:27 38.5 °F /  3.6 °C 34.3 °F /  1.3 °C 30.2in /  1021.0hPa Calm   1mph /  1.6km/h 85% 0in /  0.0mm 0 W/m2
06:33 38.3 °F /  3.5 °C 34.2 °F /  1.2 °C 30.2in /  1021.3hPa SSE 0.9mph /  1.4km/h 1mph /  1.6km/h 85% 0in /  0.0mm 0 W/m2
06:38 38.3 °F /  3.5 °C 34.2 °F /  1.2 °C 30.2in /  1021.3hPa Calm   1mph /  1.6km/h 85% 0in /  0.0mm 0 W/m2
06:43 38.1 °F /  3.4 °C 34 °F /  1.1 °C 30.2in /  1021.3hPa Calm     85% 0in /  0.0mm 0 W/m2
06:48 38.1 °F /  3.4 °C 34 °F /  1.1 °C 30.2in /  1021.3hPa Calm     85% 0in /  0.0mm 0 W/m2
06:53 38.1 °F /  3.4 °C 34 °F /  1.1 °C 30.2in /  1021.3hPa Calm     85% 0in /  0.0mm 0 W/m2
06:58 38.1 °F /  3.4 °C 34 °F /  1.1 °C 30.2in /  1021.3hPa Calm     85% 0in /  0.0mm 0 W/m2
07:03 37.9 °F /  3.3 °C 33.8 °F /  1 °C 30.2in /  1021.3hPa Calm     85% 0in /  0.0mm 0 W/m2
07:08 37.9 °F /  3.3 °C 33.8 °F /  1 °C 30.2in /  1021.3hPa Calm     85% 0in /  0.0mm 5 W/m2
07:13 37.9 °F /  3.3 °C 33.8 °F /  1 °C 30.2in /  1021.3hPa Calm     85% 0in /  0.0mm 7 W/m2
07:18 37.8 °F /  3.2 °C 33.6 °F /  0.9 °C 30.2in /  1021.3hPa Calm     85% 0in /  0.0mm 11 W/m2
07:23 37.8 °F /  3.2 °C 34 °F /  1.1 °C 30.2in /  1021.3hPa Calm     86% 0in /  0.0mm 12 W/m2
07:28 37.6 °F /  3.1 °C 33.8 °F /  1 °C 30.2in /  1021.3hPa Calm     86% 0in /  0.0mm 16 W/m2
07:33 37.8 °F /  3.2 °C 34 °F /  1.1 °C 30.2in /  1021.7hPa Calm     86% 0in /  0.0mm 18 W/m2
07:38 37.9 °F /  3.3 °C 34.3 °F /  1.3 °C 30.2in /  1021.7hPa Calm     87% 0in /  0.0mm 19 W/m2
07:43 37.9 °F /  3.3 °C 34.3 °F /  1.3 °C 30.2in /  1021.7hPa Calm     87% 0in /  0.0mm 23 W/m2
07:48 38.1 °F /  3.4 °C 34.5 °F /  1.4 °C 30.2in /  1021.7hPa Calm     87% 0in /  0.0mm 25 W/m2
07:53 38.5 °F /  3.6 °C 34.9 °F /  1.6 °C 30.2in /  1021.7hPa Calm     87% 0in /  0.0mm 26 W/m2
07:58 38.8 °F /  3.8 °C 35.2 °F /  1.8 °C 30.2in /  1021.7hPa SSE 0.9mph /  1.4km/h 1mph /  1.6km/h 87% 0in /  0.0mm 28 W/m2
08:03 39.4 °F /  4.1 °C 35.6 °F /  2 °C 30.2in /  1021.7hPa Calm     86% 0in /  0.0mm 30 W/m2
08:08 39.9 °F /  4.4 °C 35.8 °F /  2.1 °C 30.2in /  1021.7hPa Calm     85% 0in /  0.0mm 32 W/m2
08:13 40.6 °F /  4.8 °C 36 °F /  2.2 °C 30.2in /  1021.7hPa SSE 0.9mph /  1.4km/h 1mph /  1.6km/h 83% 0in /  0.0mm 127 W/m2
08:18 41.5 °F /  5.3 °C 36.1 °F /  2.3 °C 30.2in /  1021.7hPa Calm   1mph /  1.6km/h 81% 0in /  0.0mm 142 W/m2
08:23 42.1 °F /  5.6 °C 36 °F /  2.2 °C 30.2in /  1021.7hPa East 2mph /  3.2km/h 2mph /  3.2km/h 79% 0in /  0.0mm 155 W/m2
08:28 43.2 °F /  6.2 °C 36.1 °F /  2.3 °C 30.2in /  1021.7hPa East 0.9mph /  1.4km/h 2mph /  3.2km/h 76% 0in /  0.0mm 167 W/m2
08:33 44.1 °F /  6.7 °C 36.3 °F /  2.4 °C 30.2in /  1021.7hPa Calm   1mph /  1.6km/h 74% 0in /  0.0mm 183 W/m2
08:38 44.8 °F /  7.1 °C 36.3 °F /  2.4 °C 30.2in /  1021.7hPa ESE 2mph /  3.2km/h 2mph /  3.2km/h 72% 0in /  0.0mm 195 W/m2
08:43 45.5 °F /  7.5 °C 36.7 °F /  2.6 °C 30.2in /  1021.7hPa ESE 2mph /  3.2km/h 3mph /  4.8km/h 71% 0in /  0.0mm 209 W/m2
08:48 46.2 °F /  7.9 °C 36.3 °F /  2.4 °C 30.2in /  1021.7hPa ESE 0.9mph /  1.4km/h 2mph /  3.2km/h 68% 0in /  0.0mm 221 W/m2
08:53 46.8 °F /  8.2 °C 36.3 °F /  2.4 °C 30.2in /  1022.0hPa NE 2mph /  3.2km/h 3mph /  4.8km/h 67% 0in /  0.0mm 234 W/m2
08:58 47.3 °F /  8.5 °C 36.5 °F /  2.5 °C 30.2in /  1022.0hPa NE 4mph /  6.4km/h 5mph /  8km/h 66% 0in /  0.0mm 246 W/m2
09:03 47.7 °F /  8.7 °C 36.1 °F /  2.3 °C 30.2in /  1022.0hPa NE 2mph /  3.2km/h 4mph /  6.4km/h 64% 0in /  0.0mm 260 W/m2
09:08 47.8 °F /  8.8 °C 36.3 °F /  2.4 °C 30.2in /  1022.0hPa ENE 2mph /  3.2km/h 3mph /  4.8km/h 64% 0in /  0.0mm 274 W/m2
09:13 48.2 °F /  9 °C 36.7 °F /  2.6 °C 30.2in /  1022.0hPa Calm   4mph /  6.4km/h 64% 0in /  0.0mm 287 W/m2
09:18 48.6 °F /  9.2 °C 36.5 °F /  2.5 °C 30.2in /  1022.0hPa ENE 2.9mph /  4.7km/h 5mph /  8km/h 63% 0in /  0.0mm 299 W/m2
09:23 48.7 °F /  9.3 °C 36.3 °F /  2.4 °C 30.2in /  1022.0hPa East 0.9mph /  1.4km/h 6mph /  9.7km/h 62% 0in /  0.0mm 309 W/m2
09:28 48.9 °F /  9.4 °C 36.5 °F /  2.5 °C 30.2in /  1022.0hPa East 2.9mph /  4.7km/h 3mph /  4.8km/h 62% 0in /  0.0mm 323 W/m2
09:33 49.3 °F /  9.6 °C 36.3 °F /  2.4 °C 30.2in /  1022.0hPa Calm   7mph /  11.3km/h 61% 0in /  0.0mm 70 W/m2
09:38 49.6 °F /  9.8 °C 37.2 °F /  2.9 °C 30.2in /  1022.0hPa NE 2.9mph /  4.7km/h 5mph /  8km/h 62% 0in /  0.0mm 54 W/m2
09:43 50.4 °F /  10.2 °C 37 °F /  2.8 °C 30.2in /  1021.7hPa ENE 0.9mph /  1.4km/h 8mph /  12.9km/h 60% 0in /  0.0mm 360 W/m2
09:48 50.7 °F /  10.4 °C 37.4 °F /  3 °C 30.2in /  1021.7hPa ESE 4mph /  6.4km/h 4mph /  6.4km/h 60% 0in /  0.0mm 376 W/m2
09:53 51.4 °F /  10.8 °C 37.6 °F /  3.1 °C 30.2in /  1021.7hPa SE 4mph /  6.4km/h 8mph /  12.9km/h 59% 0in /  0.0mm 385 W/m2
09:58 51.8 °F /  11 °C 37.9 °F /  3.3 °C 30.2in /  1021.7hPa NE 0.9mph /  1.4km/h 4mph /  6.4km/h 59% 0in /  0.0mm 397 W/m2
10:03 52.3 °F /  11.3 °C 37.9 °F /  3.3 °C 30.2in /  1021.7hPa East 2.9mph /  4.7km/h 7mph /  11.3km/h 58% 0in /  0.0mm 410 W/m2
10:08 52.9 °F /  11.6 °C 37.6 °F /  3.1 °C 30.2in /  1021.7hPa East 0.9mph /  1.4km/h 4mph /  6.4km/h 56% 0in /  0.0mm 420 W/m2
10:13 53.1 °F /  11.7 °C 38.3 °F /  3.5 °C 30.2in /  1021.7hPa ESE 0.9mph /  1.4km/h 4mph /  6.4km/h 57% 0in /  0.0mm 434 W/m2
10:18 53.8 °F /  12.1 °C 38.5 °F /  3.6 °C 30.2in /  1021.7hPa East 2mph /  3.2km/h 5mph /  8km/h 56% 0in /  0.0mm 445 W/m2
10:23 54.1 °F /  12.3 °C 39.2 °F /  4 °C 30.2in /  1021.7hPa ESE 2mph /  3.2km/h 2mph /  3.2km/h 57% 0in /  0.0mm 457 W/m2
10:29 54.7 °F /  12.6 °C 38.8 °F /  3.8 °C 30.2in /  1021.7hPa SE 2mph /  3.2km/h 4mph /  6.4km/h 55% 0in /  0.0mm 469 W/m2
10:34 55.2 °F /  12.9 °C 38.8 °F /  3.8 °C 30.2in /  1021.7hPa NE 2mph /  3.2km/h 5mph /  8km/h 54% 0in /  0.0mm 480 W/m2
10:39 55.4 °F /  13 °C 38.5 °F /  3.6 °C 30.2in /  1021.7hPa East 4mph /  6.4km/h 5mph /  8km/h 53% 0in /  0.0mm 490 W/m2
10:44 55.6 °F /  13.1 °C 38.7 °F /  3.7 °C 30.2in /  1021.7hPa East 2mph /  3.2km/h 3mph /  4.8km/h 53% 0in /  0.0mm 503 W/m2
10:49 55.9 °F /  13.3 °C 38.5 °F /  3.6 °C 30.2in /  1021.7hPa ESE 0.9mph /  1.4km/h 3mph /  4.8km/h 52% 0in /  0.0mm 512 W/m2
10:54 56.5 °F /  13.6 °C 39 °F /  3.9 °C 30.2in /  1021.7hPa SE 2mph /  3.2km/h 7mph /  11.3km/h 52% 0in /  0.0mm 520 W/m2
10:59 57.2 °F /  14 °C 39.2 °F /  4 °C 30.2in /  1021.7hPa NE 4.9mph /  7.9km/h 6mph /  9.7km/h 51% 0in /  0.0mm 531 W/m2
11:04 57.7 °F /  14.3 °C 38.7 °F /  3.7 °C 30.2in /  1021.7hPa ESE 4mph /  6.4km/h 4mph /  6.4km/h 49% 0in /  0.0mm 538 W/m2
11:09 58.1 °F /  14.5 °C 39.6 °F /  4.2 °C 30.2in /  1021.7hPa ESE 2mph /  3.2km/h 2mph /  3.2km/h 50% 0in /  0.0mm 548 W/m2
11:14 58.6 °F /  14.8 °C 39.6 °F /  4.2 °C 30.2in /  1021.3hPa NE 4.9mph /  7.9km/h 5mph /  8km/h 49% 0in /  0.0mm 559 W/m2
11:19 58.6 °F /  14.8 °C 39 °F /  3.9 °C 30.2in /  1021.3hPa ESE 2mph /  3.2km/h 4mph /  6.4km/h 48% 0in /  0.0mm 568 W/m2
11:24 58.6 °F /  14.8 °C 39 °F /  3.9 °C 30.2in /  1021.3hPa NNE 2.9mph /  4.7km/h 6mph /  9.7km/h 48% 0in /  0.0mm 575 W/m2
11:29 58.8 °F /  14.9 °C 39.7 °F /  4.3 °C 30.2in /  1021.3hPa ENE 0.9mph /  1.4km/h 6mph /  9.7km/h 49% 0in /  0.0mm 582 W/m2
11:34 59.4 °F /  15.2 °C 39.7 °F /  4.3 °C 30.2in /  1021.3hPa East 2mph /  3.2km/h 4mph /  6.4km/h 48% 0in /  0.0mm 592 W/m2
11:39 59.4 °F /  15.2 °C 39.7 °F /  4.3 °C 30.2in /  1021.3hPa East 2mph /  3.2km/h 10mph /  16.1km/h 48% 0in /  0.0mm 596 W/m2
11:44 59.4 °F /  15.2 °C 40.3 °F /  4.6 °C 30.2in /  1021.3hPa NE 4mph /  6.4km/h 6mph /  9.7km/h 49% 0in /  0.0mm 605 W/m2
11:49 59.5 °F /  15.3 °C 39.9 °F /  4.4 °C 30.2in /  1021.3hPa ESE 0.9mph /  1.4km/h 7mph /  11.3km/h 48% 0in /  0.0mm 610 W/m2
11:54 59.7 °F /  15.4 °C 39.9 °F /  4.4 °C 30.2in /  1021.3hPa ENE 2.9mph /  4.7km/h 4mph /  6.4km/h 48% 0in /  0.0mm 619 W/m2
11:59 59.9 °F /  15.5 °C 39.6 °F /  4.2 °C 30.2in /  1021.0hPa ENE 4mph /  6.4km/h 8mph /  12.9km/h 47% 0in /  0.0mm 624 W/m2
12:04 60.1 °F /  15.6 °C 40.3 °F /  4.6 °C 30.2in /  1021.0hPa ENE 6mph /  9.7km/h 9mph /  14.5km/h 48% 0in /  0.0mm 629 W/m2
12:09 60.4 °F /  15.8 °C 40.1 °F /  4.5 °C 30.2in /  1021.0hPa ESE 4mph /  6.4km/h 6mph /  9.7km/h 47% 0in /  0.0mm 636 W/m2
12:14 61 °F /  16.1 °C 40.1 °F /  4.5 °C 30.2in /  1021.0hPa SE 2mph /  3.2km/h 7mph /  11.3km/h 46% 0in /  0.0mm 643 W/m2
12:19 61.2 °F /  16.2 °C 40.8 °F /  4.9 °C 30.2in /  1021.0hPa NNE 2mph /  3.2km/h 4mph /  6.4km/h 47% 0in /  0.0mm 650 W/m2
12:24 61.5 °F /  16.4 °C 39.9 °F /  4.4 °C 30.1in /  1020.7hPa East 2.9mph /  4.7km/h 9mph /  14.5km/h 45% 0in /  0.0mm 652 W/m2
12:29 61.9 °F /  16.6 °C 40.3 °F /  4.6 °C 30.1in /  1020.7hPa NE 4.9mph /  7.9km/h 5mph /  8km/h 45% 0in /  0.0mm 654 W/m2
12:34 62.1 °F /  16.7 °C 40.5 °F /  4.7 °C 30.1in /  1020.7hPa East 6mph /  9.7km/h 11mph /  17.7km/h 45% 0in /  0.0mm 661 W/m2
12:39 62.8 °F /  17.1 °C 39.9 °F /  4.4 °C 30.1in /  1020.7hPa NE 2.9mph /  4.7km/h 5mph /  8km/h 43% 0in /  0.0mm 663 W/m2
12:44 62.6 °F /  17 °C 39.7 °F /  4.3 °C 30.1in /  1020.7hPa NNE 2mph /  3.2km/h 12mph /  19.3km/h 43% 0in /  0.0mm 670 W/m2
12:49 63 °F /  17.2 °C 41.4 °F /  5.2 °C 30.1in /  1020.7hPa East 2.9mph /  4.7km/h 8mph /  12.9km/h 45% 0in /  0.0mm 673 W/m2
12:54 63.3 °F /  17.4 °C 39.9 °F /  4.4 °C 30.1in /  1020.3hPa ESE 4.9mph /  7.9km/h 10mph /  16.1km/h 42% 0in /  0.0mm 677 W/m2
12:59 63.7 °F /  17.6 °C 40.8 °F /  4.9 °C 30.1in /  1020.3hPa ENE 6.9mph /  11.1km/h 10mph /  16.1km/h 43% 0in /  0.0mm 680 W/m2
13:04 64 °F /  17.8 °C 40.5 °F /  4.7 °C 30.1in /  1020.3hPa East 0.9mph /  1.4km/h 2mph /  3.2km/h 42% 0in /  0.0mm 680 W/m2
13:09 64.6 °F /  18.1 °C 40.3 °F /  4.6 °C 30.1in /  1020.0hPa ENE 10mph /  16.1km/h 10mph /  16.1km/h 41% 0in /  0.0mm 682 W/m2
13:14 64.8 °F /  18.2 °C 41.2 °F /  5.1 °C 30.1in /  1020.0hPa ENE 2mph /  3.2km/h 6mph /  9.7km/h 42% 0in /  0.0mm 684 W/m2
13:19 64.9 °F /  18.3 °C 40.6 °F /  4.8 °C 30.1in /  1020.0hPa NE 4mph /  6.4km/h 8mph /  12.9km/h 41% 0in /  0.0mm 686 W/m2
13:24 64.9 °F /  18.3 °C 40.1 °F /  4.5 °C 30.1in /  1020.0hPa South 2mph /  3.2km/h 8mph /  12.9km/h 40% 0in /  0.0mm 687 W/m2
13:29 64.9 °F /  18.3 °C 40.1 °F /  4.5 °C 30.1in /  1020.0hPa East 2.9mph /  4.7km/h 5mph /  8km/h 40% 0in /  0.0mm 693 W/m2
13:34 65.5 °F /  18.6 °C 40.5 °F /  4.7 °C 30.1in /  1020.0hPa ESE 2mph /  3.2km/h 7mph /  11.3km/h 40% 0in /  0.0mm 689 W/m2
13:39 65.8 °F /  18.8 °C 40.1 °F /  4.5 °C 30.1in /  1019.6hPa ENE 2mph /  3.2km/h 9mph /  14.5km/h 39% 0in /  0.0mm 689 W/m2
13:44 66 °F /  18.9 °C 39.7 °F /  4.3 °C 30.1in /  1019.6hPa ESE 2.9mph /  4.7km/h 7mph /  11.3km/h 38% 0in /  0.0mm 689 W/m2
13:49 66.2 °F /  19 °C 40.5 °F /  4.7 °C 30.1in /  1019.6hPa NE 4mph /  6.4km/h 5mph /  8km/h 39% 0in /  0.0mm 686 W/m2
13:54 66.4 °F /  19.1 °C 40.6 °F /  4.8 °C 30.1in /  1019.6hPa SE 4mph /  6.4km/h 6mph /  9.7km/h 39% 0in /  0.0mm 682 W/m2
13:59 66.6 °F /  19.2 °C 40.8 °F /  4.9 °C 30.1in /  1019.6hPa East 2mph /  3.2km/h 6mph /  9.7km/h 39% 0in /  0.0mm 682 W/m2
14:04 66.9 °F /  19.4 °C 40.5 °F /  4.7 °C 30.1in /  1019.3hPa East 2.9mph /  4.7km/h 4mph /  6.4km/h 38% 0in /  0.0mm 687 W/m2
14:09 67.3 °F /  19.6 °C 40.1 °F /  4.5 °C 30.1in /  1019.3hPa NE 2.9mph /  4.7km/h 6mph /  9.7km/h 37% 0in /  0.0mm 684 W/m2
14:14 67.5 °F /  19.7 °C 39.6 °F /  4.2 °C 30.1in /  1019.3hPa East 2mph /  3.2km/h 5mph /  8km/h 36% 0in /  0.0mm 684 W/m2
14:19 67.3 °F /  19.6 °C 39.4 °F /  4.1 °C 30.1in /  1019.3hPa ESE 11mph /  17.7km/h 12mph /  19.3km/h 36% 0in /  0.0mm 679 W/m2
14:24 66.9 °F /  19.4 °C 39.7 °F /  4.3 °C 30.1in /  1019.3hPa East 2.9mph /  4.7km/h 4mph /  6.4km/h 37% 0in /  0.0mm 675 W/m2
14:29 67.3 °F /  19.6 °C 41.5 °F /  5.3 °C 30.1in /  1019.3hPa East 2mph /  3.2km/h 7mph /  11.3km/h 39% 0in /  0.0mm 675 W/m2
14:34 67.5 °F /  19.7 °C 39.6 °F /  4.2 °C 30.1in /  1019.0hPa ENE 2mph /  3.2km/h 7mph /  11.3km/h 36% 0in /  0.0mm 668 W/m2
14:39 67.6 °F /  19.8 °C 39.7 °F /  4.3 °C 30.1in /  1019.0hPa East 2.9mph /  4.7km/h 7mph /  11.3km/h 36% 0in /  0.0mm 663 W/m2
14:45 67.8 °F /  19.9 °C 39.9 °F /  4.4 °C 30.1in /  1019.0hPa ESE 2mph /  3.2km/h 5mph /  8km/h 36% 0in /  0.0mm 657 W/m2
14:50 67.6 °F /  19.8 °C 40.5 °F /  4.7 °C 30.1in /  1019.0hPa ESE 0.9mph /  1.4km/h 9mph /  14.5km/h 37% 0in /  0.0mm 657 W/m2
14:55 68.2 °F /  20.1 °C 41 °F /  5 °C 30.1in /  1019.0hPa ENE 2mph /  3.2km/h 7mph /  11.3km/h 37% 0in /  0.0mm 654 W/m2
15:00 68.5 °F /  20.3 °C 40.5 °F /  4.7 °C 30.1in /  1019.0hPa ESE 2mph /  3.2km/h 9mph /  14.5km/h 36% 0in /  0.0mm 647 W/m2
15:05 68.7 °F /  20.4 °C 39.9 °F /  4.4 °C 30.1in /  1019.0hPa NE 0.9mph /  1.4km/h 8mph /  12.9km/h 35% 0in /  0.0mm 638 W/m2
15:10 68.5 °F /  20.3 °C 39.7 °F /  4.3 °C 30.1in /  1018.6hPa SSE 4mph /  6.4km/h 13mph /  20.9km/h 35% 0in /  0.0mm 640 W/m2
15:15 68.7 °F /  20.4 °C 39.9 °F /  4.4 °C 30.1in /  1018.6hPa SE 6.9mph /  11.1km/h 7mph /  11.3km/h 35% 0in /  0.0mm 628 W/m2
15:20 68.7 °F /  20.4 °C 39.9 °F /  4.4 °C 30.1in /  1018.6hPa ENE 6.9mph /  11.1km/h 8mph /  12.9km/h 35% 0in /  0.0mm 628 W/m2
15:25 68.9 °F /  20.5 °C 38.7 °F /  3.7 °C 30.1in /  1018.6hPa East 6.9mph /  11.1km/h 7mph /  11.3km/h 33% 0in /  0.0mm 621 W/m2
15:30 68.7 °F /  20.4 °C 40.6 °F /  4.8 °C 30.1in /  1018.3hPa ENE 4mph /  6.4km/h 4mph /  6.4km/h 36% 0in /  0.0mm 605 W/m2
15:35 69.1 °F /  20.6 °C 39.6 °F /  4.2 °C 30.1in /  1018.3hPa SE 2mph /  3.2km/h 5mph /  8km/h 34% 0in /  0.0mm 605 W/m2
15:40 69.3 °F /  20.7 °C 38.8 °F /  3.8 °C 30.1in /  1018.3hPa East 4.9mph /  7.9km/h 10mph /  16.1km/h 33% 0in /  0.0mm 594 W/m2
15:45 69.4 °F /  20.8 °C 39.9 °F /  4.4 °C 30.1in /  1018.3hPa ENE 8.1mph /  13km/h 8mph /  12.9km/h 34% 0in /  0.0mm 589 W/m2
15:50 69.3 °F /  20.7 °C 38.8 °F /  3.8 °C 30.1in /  1018.3hPa ESE 2.9mph /  4.7km/h 10mph /  16.1km/h 33% 0in /  0.0mm 575 W/m2
15:55 69.1 °F /  20.6 °C 38.8 °F /  3.8 °C 30.1in /  1018.3hPa ENE 4mph /  6.4km/h 5mph /  8km/h 33% 0in /  0.0mm 564 W/m2
16:00 69.1 °F /  20.6 °C 39.6 °F /  4.2 °C 30.1in /  1018.0hPa ESE 2mph /  3.2km/h 4mph /  6.4km/h 34% 0in /  0.0mm 561 W/m2
16:05 69.3 °F /  20.7 °C 37.4 °F /  3 °C 30.1in /  1018.3hPa East 2mph /  3.2km/h 4mph /  6.4km/h 31% 0in /  0.0mm 550 W/m2
16:10 69.1 °F /  20.6 °C 37.2 °F /  2.9 °C 30.1in /  1018.0hPa ESE 2mph /  3.2km/h 7mph /  11.3km/h 31% 0in /  0.0mm 540 W/m2
16:15 69.1 °F /  20.6 °C 38.8 °F /  3.8 °C 30.1in /  1018.0hPa East 2.9mph /  4.7km/h 4mph /  6.4km/h 33% 0in /  0.0mm 529 W/m2
16:20 69.4 °F /  20.8 °C 39 °F /  3.9 °C 30.1in /  1018.0hPa ESE 2.9mph /  4.7km/h 5mph /  8km/h 33% 0in /  0.0mm 517 W/m2
16:25 70 °F /  21.1 °C 39.6 °F /  4.2 °C 30.1in /  1018.0hPa ESE 2.9mph /  4.7km/h 6mph /  9.7km/h 33% 0in /  0.0mm 508 W/m2
16:31 70 °F /  21.1 °C 39.6 °F /  4.2 °C 30.1in /  1018.0hPa East 4.9mph /  7.9km/h 7mph /  11.3km/h 33% 0in /  0.0mm 501 W/m2
16:36 69.8 °F /  21 °C 38.7 °F /  3.7 °C 30.1in /  1018.0hPa ENE 4.9mph /  7.9km/h 5mph /  8km/h 32% 0in /  0.0mm 489 W/m2
16:41 69.8 °F /  21 °C 39.4 °F /  4.1 °C 30.1in /  1018.0hPa ESE 0.9mph /  1.4km/h 3mph /  4.8km/h 33% 0in /  0.0mm 473 W/m2
16:46 70 °F /  21.1 °C 38.8 °F /  3.8 °C 30.1in /  1017.6hPa ESE 2mph /  3.2km/h 10mph /  16.1km/h 32% 0in /  0.0mm 464 W/m2
16:51 70.2 °F /  21.2 °C 39.7 °F /  4.3 °C 30.1in /  1017.6hPa ESE 6.9mph /  11.1km/h 7mph /  11.3km/h 33% 0in /  0.0mm 455 W/m2
16:56 70.2 °F /  21.2 °C 39.7 °F /  4.3 °C 30.1in /  1017.6hPa East 6mph /  9.7km/h 6mph /  9.7km/h 33% 0in /  0.0mm 439 W/m2
17:01 70 °F /  21.1 °C 38.8 °F /  3.8 °C 30.1in /  1017.6hPa SE 4mph /  6.4km/h 8mph /  12.9km/h 32% 0in /  0.0mm 431 W/m2
17:06 70 °F /  21.1 °C 39.6 °F /  4.2 °C 30.1in /  1017.6hPa East 2mph /  3.2km/h 4mph /  6.4km/h 33% 0in /  0.0mm 422 W/m2
17:11 69.6 °F /  20.9 °C 38.5 °F /  3.6 °C 30.1in /  1017.6hPa ESE 2mph /  3.2km/h 6mph /  9.7km/h 32% 0in /  0.0mm 408 W/m2
17:16 69.6 °F /  20.9 °C 38.5 °F /  3.6 °C 30in /  1017.3hPa East 4.9mph /  7.9km/h 8mph /  12.9km/h 32% 0in /  0.0mm 397 W/m2
17:21 69.6 °F /  20.9 °C 38.5 °F /  3.6 °C 30in /  1017.3hPa East 4mph /  6.4km/h 7mph /  11.3km/h 32% 0in /  0.0mm 387 W/m2
17:26 69.6 °F /  20.9 °C 38.5 °F /  3.6 °C 30in /  1017.3hPa WSW 2mph /  3.2km/h 4mph /  6.4km/h 32% 0in /  0.0mm 374 W/m2
17:31 70 °F /  21.1 °C 38.8 °F /  3.8 °C 30in /  1017.3hPa East 4mph /  6.4km/h 5mph /  8km/h 32% 0in /  0.0mm 362 W/m2
17:36 70 °F /  21.1 °C 37 °F /  2.8 °C 30in /  1017.3hPa East 6mph /  9.7km/h 9mph /  14.5km/h 30% 0in /  0.0mm 352 W/m2
17:41 69.6 °F /  20.9 °C 37.6 °F /  3.1 °C 30in /  1017.3hPa ESE 4mph /  6.4km/h 6mph /  9.7km/h 31% 0in /  0.0mm 338 W/m2
17:46 69.6 °F /  20.9 °C 37.6 °F /  3.1 °C 30in /  1017.3hPa SSE 2mph /  3.2km/h 9mph /  14.5km/h 31% 0in /  0.0mm 323 W/m2
17:51 69.8 °F /  21 °C 37.8 °F /  3.2 °C 30in /  1017.3hPa ENE 2mph /  3.2km/h 12mph /  19.3km/h 31% 0in /  0.0mm 311 W/m2
17:56 69.6 °F /  20.9 °C 37.6 °F /  3.1 °C 30in /  1016.9hPa ESE 4mph /  6.4km/h 4mph /  6.4km/h 31% 0in /  0.0mm 297 W/m2
18:01 69.6 °F /  20.9 °C 37.6 °F /  3.1 °C 30in /  1016.9hPa ESE 2.9mph /  4.7km/h 12mph /  19.3km/h 31% 0in /  0.0mm 288 W/m2
18:06 69.6 °F /  20.9 °C 37.6 °F /  3.1 °C 30in /  1016.9hPa East 2mph /  3.2km/h 2mph /  3.2km/h 31% 0in /  0.0mm 274 W/m2
18:11 69.6 °F /  20.9 °C 37.6 °F /  3.1 °C 30in /  1016.9hPa ENE 2mph /  3.2km/h 9mph /  14.5km/h 31% 0in /  0.0mm 260 W/m2
18:16 69.4 °F /  20.8 °C 38.3 °F /  3.5 °C 30in /  1016.9hPa ESE 0.9mph /  1.4km/h 2mph /  3.2km/h 32% 0in /  0.0mm 246 W/m2
18:21 69.4 °F /  20.8 °C 37.4 °F /  3 °C 30in /  1016.9hPa East 0.9mph /  1.4km/h 2mph /  3.2km/h 31% 0in /  0.0mm 232 W/m2
18:26 69.3 °F /  20.7 °C 37.4 °F /  3 °C 30in /  1016.9hPa East 2mph /  3.2km/h 4mph /  6.4km/h 31% 0in /  0.0mm 216 W/m2
18:31 69.1 °F /  20.6 °C 36.3 °F /  2.4 °C 30in /  1016.9hPa ESE 2.9mph /  4.7km/h 3mph /  4.8km/h 30% 0in /  0.0mm 204 W/m2
18:36 69.1 °F /  20.6 °C 37.9 °F /  3.3 °C 30in /  1016.9hPa ESE 4mph /  6.4km/h 7mph /  11.3km/h 32% 0in /  0.0mm 188 W/m2
18:41 68.7 °F /  20.4 °C 37.6 °F /  3.1 °C 30in /  1016.9hPa SE 2mph /  3.2km/h 6mph /  9.7km/h 32% 0in /  0.0mm 171 W/m2
18:46 68.7 °F /  20.4 °C 37.6 °F /  3.1 °C 30in /  1016.9hPa SE 0.9mph /  1.4km/h 2mph /  3.2km/h 32% 0in /  0.0mm 155 W/m2
18:51 68.7 °F /  20.4 °C 37.6 °F /  3.1 °C 30in /  1016.9hPa ESE 2mph /  3.2km/h 8mph /  12.9km/h 32% 0in /  0.0mm 141 W/m2
18:56 68.5 °F /  20.3 °C 37.6 °F /  3.1 °C 30in /  1016.9hPa East 2mph /  3.2km/h 2mph /  3.2km/h 32% 0in /  0.0mm 123 W/m2
19:02 68.4 °F /  20.2 °C 38.1 °F /  3.4 °C 30in /  1016.9hPa SE 2.9mph /  4.7km/h 3mph /  4.8km/h 33% 0in /  0.0mm 109 W/m2
19:07 68.2 °F /  20.1 °C 38.7 °F /  3.7 °C 30in /  1016.9hPa ESE 0.9mph /  1.4km/h 2mph /  3.2km/h 34% 0in /  0.0mm 95 W/m2
19:12 68 °F /  20 °C 38.7 °F /  3.7 °C 30in /  1016.9hPa ESE 2mph /  3.2km/h 4mph /  6.4km/h 34% 0in /  0.0mm 81 W/m2
19:17 67.6 °F /  19.8 °C 39 °F /  3.9 °C 30in /  1016.9hPa South 0.9mph /  1.4km/h 2mph /  3.2km/h 35% 0in /  0.0mm 74 W/m2
19:22 67.3 °F /  19.6 °C 39.4 °F /  4.1 °C 30in /  1016.9hPa SSW 0.9mph /  1.4km/h 1mph /  1.6km/h 36% 0in /  0.0mm 58 W/m2
19:27 66.7 °F /  19.3 °C 40.3 °F /  4.6 °C 30in /  1016.9hPa Calm   2mph /  3.2km/h 38% 0in /  0.0mm 44 W/m2
19:32 66 °F /  18.9 °C 39 °F /  3.9 °C 30in /  1016.9hPa Calm     37% 0in /  0.0mm 25 W/m2
19:37 65.1 °F /  18.4 °C 40.3 °F /  4.6 °C 30in /  1016.9hPa SSE 0.9mph /  1.4km/h 1mph /  1.6km/h 40% 0in /  0.0mm 21 W/m2
19:42 64 °F /  17.8 °C 39.9 °F /  4.4 °C 30in /  1016.9hPa Calm   1mph /  1.6km/h 41% 0in /  0.0mm 19 W/m2
19:47 63.1 °F /  17.3 °C 39.7 °F /  4.3 °C 30in /  1016.9hPa Calm   1mph /  1.6km/h 42% 0in /  0.0mm 16 W/m2
19:52 62.1 °F /  16.7 °C 39.4 °F /  4.1 °C 30in /  1016.9hPa Calm   1mph /  1.6km/h 43% 0in /  0.0mm 14 W/m2
19:57 61.3 °F /  16.3 °C 39.7 °F /  4.3 °C 30in /  1016.9hPa Calm   1mph /  1.6km/h 45% 0in /  0.0mm 12 W/m2
20:02 60.4 °F /  15.8 °C 39 °F /  3.9 °C 30in /  1016.9hPa Calm     45% 0in /  0.0mm 11 W/m2
20:07 59.7 °F /  15.4 °C 39.9 °F /  4.4 °C 30in /  1016.9hPa Calm     48% 0in /  0.0mm 7 W/m2
20:12 59.2 °F /  15.1 °C 39.6 °F /  4.2 °C 30in /  1016.9hPa Calm   2mph /  3.2km/h 48% 0in /  0.0mm 5 W/m2
20:17 58.5 °F /  14.7 °C 39.4 °F /  4.1 °C 30in /  1016.9hPa Calm     49% 0in /  0.0mm 0 W/m2
20:22 57.7 °F /  14.3 °C 39.2 °F /  4 °C 30in /  1016.9hPa Calm   2mph /  3.2km/h 50% 0in /  0.0mm 0 W/m2
20:27 57.4 °F /  14.1 °C 39.4 °F /  4.1 °C 30in /  1016.9hPa SE 0.9mph /  1.4km/h 2mph /  3.2km/h 51% 0in /  0.0mm 0 W/m2
20:32 56.8 °F /  13.8 °C 39.4 °F /  4.1 °C 30in /  1016.9hPa Calm   2mph /  3.2km/h 52% 0in /  0.0mm 0 W/m2
20:37 56.3 °F /  13.5 °C 39.4 °F /  4.1 °C 30in /  1016.9hPa Calm   1mph /  1.6km/h 53% 0in /  0.0mm 0 W/m2
20:42 55.9 °F /  13.3 °C 39.6 °F /  4.2 °C 30in /  1016.9hPa SSW 0.9mph /  1.4km/h 1mph /  1.6km/h 54% 0in /  0.0mm 0 W/m2
20:47 55.4 °F /  13 °C 39 °F /  3.9 °C 30in /  1016.9hPa Calm   1mph /  1.6km/h 54% 0in /  0.0mm 0 W/m2
20:52 54.9 °F /  12.7 °C 39 °F /  3.9 °C 30in /  1016.9hPa SSW 0.9mph /  1.4km/h 1mph /  1.6km/h 55% 0in /  0.0mm 0 W/m2
20:57 54.5 °F /  12.5 °C 39.2 °F /  4 °C 30in /  1016.9hPa Calm   2mph /  3.2km/h 56% 0in /  0.0mm 0 W/m2
21:02 54.1 °F /  12.3 °C 38.8 °F /  3.8 °C 30in /  1016.9hPa Calm   2mph /  3.2km/h 56% 0in /  0.0mm 0 W/m2
21:07 54 °F /  12.2 °C 39 °F /  3.9 °C 30in /  1016.9hPa SSW 2mph /  3.2km/h 2mph /  3.2km/h 57% 0in /  0.0mm 0 W/m2
21:12 53.6 °F /  12 °C 38.7 °F /  3.7 °C 30in /  1016.9hPa SSW 0.9mph /  1.4km/h 1mph /  1.6km/h 57% 0in /  0.0mm 0 W/m2
21:17 53.4 °F /  11.9 °C 38.5 °F /  3.6 °C 30in /  1017.3hPa Calm   2mph /  3.2km/h 57% 0in /  0.0mm 0 W/m2
21:22 53.2 °F /  11.8 °C 38.5 °F /  3.6 °C 30in /  1016.9hPa Calm     57% 0in /  0.0mm 0 W/m2
21:27 53.1 °F /  11.7 °C 38.3 °F /  3.5 °C 30in /  1017.3hPa Calm     57% 0in /  0.0mm 0 W/m2
21:32 53.1 °F /  11.7 °C 37.8 °F /  3.2 °C 30in /  1017.3hPa Calm     56% 0in /  0.0mm 0 W/m2
21:37 52.9 °F /  11.6 °C 38.1 °F /  3.4 °C 30in /  1017.3hPa Calm     57% 0in /  0.0mm 0 W/m2
21:42 52.7 °F /  11.5 °C 37.9 °F /  3.3 °C 30in /  1017.3hPa Calm     57% 0in /  0.0mm 0 W/m2
21:47 52.5 °F /  11.4 °C 37.2 °F /  2.9 °C 30in /  1017.3hPa Calm     56% 0in /  0.0mm 0 W/m2
21:52 52.5 °F /  11.4 °C 37.8 °F /  3.2 °C 30in /  1017.3hPa Calm     57% 0in /  0.0mm 0 W/m2
21:57 52.3 °F /  11.3 °C 37.9 °F /  3.3 °C 30in /  1017.3hPa Calm     58% 0in /  0.0mm 0 W/m2
22:02 52.3 °F /  11.3 °C 37.9 °F /  3.3 °C 30in /  1017.3hPa Calm     58% 0in /  0.0mm 0 W/m2
22:07 52.2 °F /  11.2 °C 37.4 °F /  3 °C 30in /  1017.3hPa Calm     57% 0in /  0.0mm 0 W/m2
22:12 52 °F /  11.1 °C 37.6 °F /  3.1 °C 30in /  1017.3hPa Calm     58% 0in /  0.0mm 0 W/m2
22:17 51.8 °F /  11 °C 37.6 °F /  3.1 °C 30in /  1017.3hPa Calm     58% 0in /  0.0mm 0 W/m2
22:22 51.6 °F /  10.9 °C 37.8 °F /  3.2 °C 30in /  1017.3hPa Calm     59% 0in /  0.0mm 0 W/m2
22:27 51.6 °F /  10.9 °C 37.8 °F /  3.2 °C 30in /  1017.3hPa Calm     59% 0in /  0.0mm 0 W/m2
22:32 51.4 °F /  10.8 °C 37.2 °F /  2.9 °C 30in /  1017.3hPa Calm     58% 0in /  0.0mm 0 W/m2
22:37 51.3 °F /  10.7 °C 37.8 °F /  3.2 °C 30in /  1017.3hPa Calm     60% 0in /  0.0mm 0 W/m2
22:42 51.1 °F /  10.6 °C 38.1 °F /  3.4 °C 30in /  1017.3hPa Calm     61% 0in /  0.0mm 0 W/m2
22:47 50.7 °F /  10.4 °C 37.8 °F /  3.2 °C 30in /  1017.3hPa Calm     61% 0in /  0.0mm 0 W/m2
22:53 50.5 °F /  10.3 °C 37.9 °F /  3.3 °C 30in /  1017.3hPa Calm     62% 0in /  0.0mm 0 W/m2
22:58 50.4 °F /  10.2 °C 37.8 °F /  3.2 °C 30in /  1017.3hPa Calm     62% 0in /  0.0mm 0 W/m2
23:03 50.2 °F /  10.1 °C 38.1 °F /  3.4 °C 30in /  1017.3hPa Calm     63% 0in /  0.0mm 0 W/m2
23:08 50.2 °F /  10.1 °C 38.1 °F /  3.4 °C 30in /  1017.3hPa Calm     63% 0in /  0.0mm 0 W/m2
23:13 50 °F /  10 °C 37.9 °F /  3.3 °C 30in /  1017.3hPa Calm     63% 0in /  0.0mm 0 W/m2
23:18 49.8 °F /  9.9 °C 38.1 °F /  3.4 °C 30in /  1017.3hPa Calm     64% 0in /  0.0mm 0 W/m2
23:23 50 °F /  10 °C 38.3 °F /  3.5 °C 30in /  1017.3hPa Calm     64% 0in /  0.0mm 0 W/m2
23:28 49.8 °F /  9.9 °C 38.5 °F /  3.6 °C 30in /  1017.3hPa Calm     65% 0in /  0.0mm 0 W/m2
23:33 49.8 °F /  9.9 °C 38.5 °F /  3.6 °C 30in /  1017.3hPa Calm     65% 0in /  0.0mm 0 W/m2
23:38 49.6 °F /  9.8 °C 37.9 °F /  3.3 °C 30in /  1017.3hPa Calm     64% 0in /  0.0mm 0 W/m2
23:43 49.5 °F /  9.7 °C 37.8 °F /  3.2 °C 30in /  1017.3hPa Calm     64% 0in /  0.0mm 0 W/m2
23:48 49.3 °F /  9.6 °C 37.6 °F /  3.1 °C 30in /  1017.3hPa Calm     64% 0in /  0.0mm 0 W/m2
23:53 49.3 °F /  9.6 °C 37.6 °F /  3.1 °C 30in /  1017.3hPa Calm     64% 0in /  0.0mm 0 W/m2
23:58 49.3 °F /  9.6 °C 37.9 °F /  3.3 °C 30in /  1017.3hPa Calm     65% 0in /  0.0mm 0 W/m2
Juneau County Weather
Compliments of Weather Underground - 2 mb